Time;durP1;ratioP1;P1;durP2;ratioP2;P2;SDS_P1;SDS_P2;PMS_P1;PMS_P2;Temp;Humidity;BMP_temperature;BMP_pressure;BME280_temperature;BME280_humidity;BME280_pressure;Samples;Min_cycle;Max_cycle;Signal;HPM_P1;HPM_P2
2022/07/10 00:00:44;;;;;;;;;;;;;;;20.48;58.07;100486.28;1088098;54;19942;-82
2022/07/10 00:01:48;;;;;;;;;;;;;;;20.49;57.79;100477.94;1088025;54;19967;-82
2022/07/10 00:02:49;;;;;;;;;;;;;;;20.47;57.95;100473.75;1088592;46;19949;-81
2022/07/10 00:03:54;;;;;;;;;;;;;;;20.49;57.70;100480.66;1088097;54;19950;-82
2022/07/10 00:04:55;;;;;;;;;;;;;;;20.42;58.24;100483.31;1087945;54;19941;-81
2022/07/10 00:05:59;;;;;;;;;;;;;;;20.40;58.25;100479.97;1088030;54;19943;-80
2022/07/10 00:07:01;;;;;;;;;;;;;;;20.42;58.18;100479.78;1091563;39;20625;-79
2022/07/10 00:08:06;;;;;;;;;;;;;;;20.43;58.37;100478.75;1088066;54;19943;-80
2022/07/10 00:09:07;;;;;;;;;;;;;;;20.47;58.00;100476.47;1089071;46;19939;-80
2022/07/10 00:10:11;;;;;;;;;;;;;;;20.46;58.31;100474.78;1088878;39;20472;-79
2022/07/10 00:11:12;;;;;;;;;;;;;;;20.48;57.76;100478.97;1088903;39;20523;-82
2022/07/10 00:12:15;;;;;;;;;;;;;;;20.48;57.68;100473.53;1088490;54;20011;-80
2022/07/10 00:13:22;;;;;;;;;;;;;;;20.47;57.96;100476.47;1088403;54;19942;-82
2022/07/10 00:14:23;;;;;;;;;;;;;;;20.38;58.38;100479.34;1090479;39;20526;-81
2022/07/10 00:15:27;;;;;;;;;;;;;;;20.42;58.25;100480.59;1088472;54;19939;-80
2022/07/10 00:16:28;;;;;;;;;;;;;;;20.41;58.19;100472.66;1088456;54;19950;-80
2022/07/10 00:17:32;;;;;;;;;;;;;;;20.38;58.19;100479.34;1088455;54;19935;-81
2022/07/10 00:18:36;;;;;;;;;;;;;;;20.38;58.18;100473.06;1088416;54;19954;-82
2022/07/10 00:19:37;;;;;;;;;;;;;;;20.31;58.51;100477.63;1087777;54;19942;-81
2022/07/10 00:20:40;;;;;;;;;;;;;;;20.33;58.10;100480.97;1088393;54;19927;-83
2022/07/10 00:21:42;;;;;;;;;;;;;;;20.28;58.27;100481.56;1088389;54;19942;-82
2022/07/10 00:22:45;;;;;;;;;;;;;;;20.26;58.38;100481.75;1089829;46;19939;-81
2022/07/10 00:23:47;;;;;;;;;;;;;;;20.29;58.37;100477.81;1088091;54;19939;-81
2022/07/10 00:24:50;;;;;;;;;;;;;;;20.31;57.87;100481.16;1087915;54;19950;-80
2022/07/10 00:25:54;;;;;;;;;;;;;;;20.31;58.18;100475.72;1087990;54;19942;-81
2022/07/10 00:26:55;;;;;;;;;;;;;;;20.29;58.01;100474.25;1088031;54;19946;-80
2022/07/10 00:27:59;;;;;;;;;;;;;;;20.31;57.93;100477.63;1087991;54;19983;-81
2022/07/10 00:29:03;;;;;;;;;;;;;;;20.30;57.80;100479.50;1088015;54;19942;-80
2022/07/10 00:30:07;;;;;;;;;;;;;;;20.30;58.21;100471.34;1087911;54;19945;-81
2022/07/10 00:31:10;;;;;;;;;;;;;;;20.24;58.44;100474.84;1087958;54;19942;-82
2022/07/10 00:32:14;;;;;;;;;;;;;;;20.23;58.40;100478.59;1088004;54;20009;-79
2022/07/10 00:33:15;;;;;;;;;;;;;;;20.18;58.66;100479.19;1087943;54;19949;-80
2022/07/10 00:34:19;;;;;;;;;;;;;;;20.17;58.24;100472.06;1087983;54;19942;-81
2022/07/10 00:35:20;;;;;;;;;;;;;;;20.21;58.36;100472.56;1087995;54;19942;-81
2022/07/10 00:36:24;;;;;;;;;;;;;;;20.20;58.03;100482.56;1087959;54;19943;-79
2022/07/10 00:37:25;;;;;;;;;;;;;;;20.10;58.36;100473.91;1087860;54;19949;-80
2022/07/10 00:38:29;;;;;;;;;;;;;;;20.08;58.45;100474.13;1087924;54;19973;-79
2022/07/10 00:39:30;;;;;;;;;;;;;;;20.10;58.38;100477.47;1087904;54;19939;-81
2022/07/10 00:40:34;;;;;;;;;;;;;;;20.09;58.45;100470.38;1088000;54;19942;-80
2022/07/10 00:41:35;;;;;;;;;;;;;;;19.97;59.17;100468.41;1087996;54;19942;-78
2022/07/10 00:42:39;;;;;;;;;;;;;;;19.91;59.10;100467.31;1090887;39;20193;-80
2022/07/10 00:43:53;;;;;;;;;;;;;;;19.91;58.88;100467.31;1087947;54;19943;-81
2022/07/10 00:44:59;;;;;;;;;;;;;;;19.84;59.09;100460.97;1087972;54;19994;-80
2022/07/10 00:46:00;;;;;;;;;;;;;;;19.82;59.11;100468.44;1087971;54;19958;-82
2022/07/10 00:47:04;;;;;;;;;;;;;;;19.82;58.81;100469.28;1087967;54;19950;-82
2022/07/10 00:48:05;;;;;;;;;;;;;;;19.85;59.07;100465.31;1087924;54;19949;-81
2022/07/10 00:49:09;;;;;;;;;;;;;;;19.86;58.97;100469.75;1087949;54;19949;-80
2022/07/10 00:50:12;;;;;;;;;;;;;;;19.86;59.02;100475.19;1087986;54;19982;-81
2022/07/10 00:51:16;;;;;;;;;;;;;;;19.77;59.12;100467.16;1088899;39;20508;-81
2022/07/10 00:52:17;;;;;;;;;;;;;;;19.71;59.17;100467.09;1087979;54;19926;-81
2022/07/10 00:53:21;;;;;;;;;;;;;;;19.75;59.18;100480.06;1087935;54;19949;-80
2022/07/10 00:54:22;;;;;;;;;;;;;;;19.75;58.84;100471.09;1087940;54;19942;-82
2022/07/10 00:55:26;;;;;;;;;;;;;;;19.72;58.96;100475.03;1087965;54;19943;-81
2022/07/10 00:56:28;;;;;;;;;;;;;;;19.71;59.29;100473.38;1087939;54;19954;-81
2022/07/10 00:57:31;;;;;;;;;;;;;;;19.68;59.52;100472.91;1087928;54;19942;-80
2022/07/10 00:58:34;;;;;;;;;;;;;;;19.60;59.68;100479.31;1087972;54;19944;-82
2022/07/10 00:59:38;;;;;;;;;;;;;;;19.59;59.66;100470.34;1087869;54;19950;-80
2022/07/10 01:00:42;;;;;;;;;;;;;;;19.60;59.68;100471.16;1087967;54;19950;-81
2022/07/10 01:01:46;;;;;;;;;;;;;;;19.59;59.53;100481.19;1087929;54;19966;-81
2022/07/10 01:02:48;;;;;;;;;;;;;;;19.59;59.69;100469.50;1093022;39;20984;-81
2022/07/10 01:03:51;;;;;;;;;;;;;;;19.53;60.06;100471.09;1087928;54;19942;-83
2022/07/10 01:04:53;;;;;;;;;;;;;;;19.56;59.59;100473.44;1088145;46;20911;-82
2022/07/10 01:05:56;;;;;;;;;;;;;;;19.56;59.61;100473.44;1087835;54;19964;-82
2022/07/10 01:06:58;;;;;;;;;;;;;;;19.58;59.64;100468.66;1087655;54;19966;-84
2022/07/10 01:08:01;;;;;;;;;;;;;;;19.62;59.50;100474.53;1087898;54;19938;-82
2022/07/10 01:09:03;;;;;;;;;;;;;;;19.65;59.39;100474.13;1089879;39;20606;-82
2022/07/10 01:10:07;;;;;;;;;;;;;;;19.63;59.69;100471.63;1087906;54;19975;-81
2022/07/10 01:11:08;;;;;;;;;;;;;;;19.67;59.57;100476.66;1087968;54;19950;-83
2022/07/10 01:12:13;;;;;;;;;;;;;;;19.66;59.59;100470.38;1087926;54;20221;-83
2022/07/10 01:13:14;;;;;;;;;;;;;;;19.65;59.39;100466.00;1087964;47;19998;-82
2022/07/10 01:14:18;;;;;;;;;;;;;;;19.63;59.42;100466.19;1087825;54;19942;-82
2022/07/10 01:15:19;;;;;;;;;;;;;;;19.66;59.40;100453.28;1088003;54;19938;-82
2022/07/10 01:16:26;;;;;;;;;;;;;;;19.61;59.64;100453.88;1087873;54;19949;-81
2022/07/10 01:17:28;;;;;;;;;;;;;;;19.60;59.73;100454.91;1087872;54;19966;-82
2022/07/10 01:18:32;;;;;;;;;;;;;;;19.61;59.48;100462.81;1087962;54;20004;-82
2022/07/10 01:19:33;;;;;;;;;;;;;;;19.57;59.76;100449.84;1087902;54;19950;-82
2022/07/10 01:20:37;;;;;;;;;;;;;;;19.52;60.32;100452.31;1087402;54;20529;-81
2022/07/10 01:21:41;;;;;;;;;;;;;;;19.49;60.31;100450.84;1087888;54;19939;-82
2022/07/10 01:22:45;;;;;;;;;;;;;;;19.41;60.66;100446.38;1087822;54;20002;-82
2022/07/10 01:23:46;;;;;;;;;;;;;;;19.38;60.65;100454.88;1087940;54;20567;-83
2022/07/10 01:24:50;;;;;;;;;;;;;;;19.28;61.31;100457.94;1087860;54;20073;-83
2022/07/10 01:25:51;;;;;;;;;;;;;;;19.22;61.27;100457.84;1087897;54;19934;-82
2022/07/10 01:26:55;;;;;;;;;;;;;;;19.10;61.60;100455.63;1089189;46;19953;-84
2022/07/10 01:27:56;;;;;;;;;;;;;;;19.07;61.74;100456.03;1087838;54;19950;-83
2022/07/10 01:29:01;;;;;;;;;;;;;;;19.00;61.79;100449.69;1088155;47;19938;-82
2022/07/10 01:30:02;;;;;;;;;;;;;;;18.85;62.59;100453.25;1087857;54;19942;-82
2022/07/10 01:31:06;;;;;;;;;;;;;;;18.75;62.97;100452.69;1087991;54;19942;-83
2022/07/10 01:32:07;;;;;;;;;;;;;;;18.78;62.50;100463.16;1087894;54;19950;-83
2022/07/10 01:33:11;;;;;;;;;;;;;;;18.70;63.16;100463.25;1087869;54;19942;-83
2022/07/10 01:34:12;;;;;;;;;;;;;;;18.74;62.58;100463.72;1087745;54;19967;-84
2022/07/10 01:35:16;;;;;;;;;;;;;;;18.70;62.89;100471.38;1087677;54;20036;-82
2022/07/10 01:36:18;;;;;;;;;;;;;;;18.73;62.39;100470.16;1087887;54;19938;-84
2022/07/10 01:37:24;;;;;;;;;;;;;;;18.65;63.17;100463.81;1087870;54;19948;-85
2022/07/10 01:38:25;;;;;;;;;;;;;;;18.67;62.47;100472.59;1087858;54;20693;-84
2022/07/10 01:39:29;;;;;;;;;;;;;;;18.69;62.34;100475.94;1087962;46;19934;-83
2022/07/10 01:40:30;;;;;;;;;;;;;;;18.71;62.60;100467.63;1087870;54;19938;-85
2022/07/10 01:41:34;;;;;;;;;;;;;;;18.73;62.41;100472.88;1087875;54;19942;-82
2022/07/10 01:42:35;;;;;;;;;;;;;;;18.68;62.77;100478.84;1087922;54;19950;-83
2022/07/10 01:43:42;;;;;;;;;;;;;;;18.54;63.17;100478.66;1087969;54;20696;-85
2022/07/10 01:44:43;;;;;;;;;;;;;;;18.50;63.26;100477.38;1087918;54;19943;-83
2022/07/10 01:45:47;;;;;;;;;;;;;;;18.51;63.23;100484.47;1087931;54;19941;-84
2022/07/10 01:46:48;;;;;;;;;;;;;;;18.54;62.77;100483.25;1087893;54;19943;-83
2022/07/10 01:47:52;;;;;;;;;;;;;;;18.49;63.50;100482.94;1087901;54;19943;-84
2022/07/10 01:48:53;;;;;;;;;;;;;;;18.51;62.91;100484.47;1087883;54;19946;-81
2022/07/10 01:49:57;;;;;;;;;;;;;;;18.49;63.24;100475.69;1087841;54;19927;-82
2022/07/10 01:50:58;;;;;;;;;;;;;;;18.40;63.75;100484.91;1087865;54;20579;-83
2022/07/10 01:52:02;;;;;;;;;;;;;;;18.46;63.32;100483.34;1087979;54;19942;-83
2022/07/10 01:53:06;;;;;;;;;;;;;;;18.32;64.17;100485.84;1087889;54;19943;-84
2022/07/10 01:54:10;;;;;;;;;;;;;;;18.27;64.32;100482.00;1088002;54;19949;-85
2022/07/10 01:55:11;;;;;;;;;;;;;;;18.29;64.16;100490.78;1087915;54;19942;-83
2022/07/10 01:56:16;;;;;;;;;;;;;;;18.23;64.55;100485.06;1087944;54;19955;-82
2022/07/10 01:57:17;;;;;;;;;;;;;;;18.14;64.52;100488.06;1087957;54;19943;-83
2022/07/10 01:58:21;;;;;;;;;;;;;;;18.17;64.16;100483.09;1087895;54;19934;-83
2022/07/10 01:59:25;;;;;;;;;;;;;;;18.17;64.32;100488.53;1087903;54;19942;-84
2022/07/10 02:00:26;;;;;;;;;;;;;;;18.17;64.03;100480.41;1087997;54;19943;-84
2022/07/10 02:01:31;;;;;;;;;;;;;;;18.20;64.28;100487.31;1087995;54;19935;-83
2022/07/10 02:02:32;;;;;;;;;;;;;;;18.21;64.12;100481.72;1087891;54;19943;-86
2022/07/10 02:04:52;;;;;;;;;;;;;;;18.06;64.72;100494.38;1087923;54;20070;-85
2022/07/10 02:05:53;;;;;;;;;;;;;;;18.03;65.17;100482.06;1089324;39;20621;-84
2022/07/10 02:06:57;;;;;;;;;;;;;;;18.02;64.67;100490.38;1087912;54;20737;-84
2022/07/10 02:07:59;;;;;;;;;;;;;;;18.02;65.00;100490.38;1087887;54;19942;-84
2022/07/10 02:09:05;;;;;;;;;;;;;;;18.05;64.58;100493.53;1087900;54;19943;-84
2022/07/10 02:10:07;;;;;;;;;;;;;;;18.06;64.38;100494.38;1087913;54;19949;-84
2022/07/10 02:12:14;;;;;;;;;;;;;;;18.08;64.52;100492.31;1088233;54;20657;-83
2022/07/10 02:13:17;;;;;;;;;;;;;;;18.10;64.24;100487.59;1088164;54;19931;-82
2022/07/10 02:14:21;;;;;;;;;;;;;;;18.13;63.97;100492.63;1088282;54;19995;-84
2022/07/10 02:15:22;;;;;;;;;;;;;;;18.15;64.16;100495.16;1088190;54;19942;-84
2022/07/10 02:16:26;;;;;;;;;;;;;;;18.18;64.02;100494.78;1088071;54;19934;-82
2022/07/10 02:17:27;;;;;;;;;;;;;;;18.16;63.70;100494.94;1088259;54;19937;-83
2022/07/10 02:18:32;;;;;;;;;;;;;;;18.18;63.93;100494.78;1088118;54;19950;-83
2022/07/10 02:19:33;;;;;;;;;;;;;;;18.21;63.72;100489.84;1088022;54;19942;-83
2022/07/10 02:20:37;;;;;;;;;;;;;;;18.22;63.60;100494.25;1088249;54;19950;-82
2022/07/10 02:21:38;;;;;;;;;;;;;;;18.22;63.50;100494.25;1088114;54;19957;-83
2022/07/10 02:22:42;;;;;;;;;;;;;;;18.20;63.70;100496.28;1088083;54;19949;-85
2022/07/10 02:23:43;;;;;;;;;;;;;;;18.19;63.78;100497.31;1088234;54;19942;-84
2022/07/10 02:24:49;;;;;;;;;;;;;;;18.15;64.12;100495.97;1088229;54;19927;-84
2022/07/10 02:25:50;;;;;;;;;;;;;;;18.17;63.73;100502.03;1087983;54;19965;-83
2022/07/10 02:26:55;;;;;;;;;;;;;;;18.11;64.49;100493.81;1087779;54;19943;-83
2022/07/10 02:27:56;;;;;;;;;;;;;;;18.11;64.13;100497.38;1087807;54;19942;-83
2022/07/10 02:29:00;;;;;;;;;;;;;;;18.09;64.06;100497.53;1088016;47;19942;-84
2022/07/10 02:30:01;;;;;;;;;;;;;;;18.09;64.26;100494.00;1087802;54;19942;-84
2022/07/10 02:31:05;;;;;;;;;;;;;;;18.04;64.31;100499.16;1087813;54;19943;-83
2022/07/10 02:32:09;;;;;;;;;;;;;;;18.04;64.39;100496.44;1087797;54;19942;-84
2022/07/10 02:33:10;;;;;;;;;;;;;;;18.01;64.34;100499.50;1087780;54;19942;-83
2022/07/10 02:34:14;;;;;;;;;;;;;;;18.00;64.50;100500.53;1087746;54;19947;-83
2022/07/10 02:35:16;;;;;;;;;;;;;;;17.97;64.46;100499.03;1088467;47;19950;-83
2022/07/10 02:36:19;;;;;;;;;;;;;;;17.97;64.43;100509.00;1087803;54;19943;-85
2022/07/10 02:37:20;;;;;;;;;;;;;;;17.95;64.73;100506.44;1087780;54;19938;-84
2022/07/10 02:38:24;;;;;;;;;;;;;;;17.84;65.68;100512.28;1087683;54;19994;-85
2022/07/10 02:39:25;;;;;;;;;;;;;;;17.81;65.61;100516.19;1087736;54;19950;-84
2022/07/10 02:40:32;;;;;;;;;;;;;;;17.82;65.15;100512.47;1087759;54;20023;-84
2022/07/10 02:41:33;;;;;;;;;;;;;;;17.75;65.79;100511.53;1087691;54;19942;-85
2022/07/10 02:42:36;;;;;;;;;;;;;;;17.68;66.15;100515.94;1087702;54;19942;-85
2022/07/10 02:43:38;;;;;;;;;;;;;;;17.59;66.40;100509.78;1088101;54;19939;-85
2022/07/10 02:44:41;;;;;;;;;;;;;;;17.55;66.44;100512.00;1088119;54;19942;-84
2022/07/10 02:45:42;;;;;;;;;;;;;;;17.57;66.22;100509.94;1088449;46;19959;-84
2022/07/10 02:46:46;;;;;;;;;;;;;;;17.52;66.49;100514.22;1088213;54;19942;-83
2022/07/10 02:47:47;;;;;;;;;;;;;;;17.45;66.76;100516.78;1088166;54;19943;-85
2022/07/10 02:48:51;;;;;;;;;;;;;;;17.46;66.71;100510.38;1088162;54;19937;-84
2022/07/10 02:49:52;;;;;;;;;;;;;;;17.46;66.63;100510.38;1088119;54;19930;-85
2022/07/10 02:50:56;;;;;;;;;;;;;;;17.50;66.25;100517.06;1088152;54;19946;-83
2022/07/10 02:51:58;;;;;;;;;;;;;;;17.46;66.57;100510.38;1088129;54;19949;-85
2022/07/10 02:53:02;;;;;;;;;;;;;;;17.44;66.90;100504.28;1088213;54;19935;-84
2022/07/10 02:54:04;;;;;;;;;;;;;;;17.37;67.10;100519.53;1088177;54;19942;-83
2022/07/10 02:55:08;;;;;;;;;;;;;;;17.40;67.05;100513.75;1088134;54;19954;-83
2022/07/10 02:56:12;;;;;;;;;;;;;;;17.43;66.41;100506.13;1090601;39;20743;-82
2022/07/10 02:57:15;;;;;;;;;;;;;;;17.43;66.60;100514.25;1088120;54;19966;-82
2022/07/10 02:58:17;;;;;;;;;;;;;;;17.43;66.69;100510.72;1087825;54;19950;-83
2022/07/10 02:59:21;;;;;;;;;;;;;;;17.45;66.38;100517.63;1088242;46;19958;-81
2022/07/10 03:00:22;;;;;;;;;;;;;;;17.42;66.75;100517.13;1087662;54;19950;-81
2022/07/10 03:01:26;;;;;;;;;;;;;;;17.36;67.29;100515.16;1088466;47;19942;-81
2022/07/10 03:02:27;;;;;;;;;;;;;;;17.30;67.46;100520.22;1088128;54;19946;-83
2022/07/10 03:03:31;;;;;;;;;;;;;;;17.27;67.20;100509.81;1088113;54;19942;-82
2022/07/10 03:04:32;;;;;;;;;;;;;;;17.24;67.80;100518.25;1091979;39;20605;-83
2022/07/10 03:05:35;;;;;;;;;;;;;;;17.19;68.07;100517.97;1089123;47;19941;-82
2022/07/10 03:06:37;;;;;;;;;;;;;;;17.17;68.01;100517.28;1088059;54;19961;-80
2022/07/10 03:07:40;;;;;;;;;;;;;;;17.15;68.31;100514.75;1088141;54;19942;-81
2022/07/10 03:08:41;;;;;;;;;;;;;;;17.19;67.69;100523.34;1088343;46;19962;-82
2022/07/10 03:09:45;;;;;;;;;;;;;;;17.24;67.45;100514.72;1088030;54;19991;-83
2022/07/10 03:10:46;;;;;;;;;;;;;;;17.28;67.48;100519.59;1088057;47;19965;-82
2022/07/10 03:11:53;;;;;;;;;;;;;;;17.33;67.23;100523.59;1088011;54;19942;-80
2022/07/10 03:12:54;;;;;;;;;;;;;;;17.35;67.51;100521.56;1088141;54;19950;-80
2022/07/10 03:13:57;;;;;;;;;;;;;;;17.38;66.95;100518.53;1088166;54;19950;-80
2022/07/10 03:14:59;;;;;;;;;;;;;;;17.44;66.54;100515.09;1088096;54;19942;-82
2022/07/10 03:16:02;;;;;;;;;;;;;;;17.46;66.70;100526.59;1087915;54;19950;-79
2022/07/10 03:17:04;;;;;;;;;;;;;;;17.48;66.85;100527.22;1087689;54;19950;-84
2022/07/10 03:18:08;;;;;;;;;;;;;;;17.50;66.71;100518.97;1087676;54;19942;-80
2022/07/10 03:19:09;;;;;;;;;;;;;;;17.50;66.69;100527.06;1088104;54;19950;-79
2022/07/10 03:20:13;;;;;;;;;;;;;;;17.53;66.42;100526.69;1088136;54;19950;-80
2022/07/10 03:21:14;;;;;;;;;;;;;;;17.57;66.40;100528.84;1088095;54;19931;-80
2022/07/10 03:22:17;;;;;;;;;;;;;;;17.60;66.02;100531.19;1088139;54;19949;-79
2022/07/10 03:23:19;;;;;;;;;;;;;;;17.64;65.90;100538.97;1089765;47;20562;-79
2022/07/10 03:24:23;;;;;;;;;;;;;;;17.61;65.95;100522.06;1088132;54;20622;-82
2022/07/10 03:25:24;;;;;;;;;;;;;;;17.61;66.11;100527.47;1092110;39;20589;-80
2022/07/10 03:26:29;;;;;;;;;;;;;;;17.52;66.41;100523.16;1088169;54;19927;-82
2022/07/10 03:27:32;;;;;;;;;;;;;;;17.36;67.07;100525.97;1088161;47;20002;-81
2022/07/10 03:28:36;;;;;;;;;;;;;;;17.48;66.89;100523.69;1088082;54;19943;-81
2022/07/10 03:29:37;;;;;;;;;;;;;;;17.44;66.86;100526.75;1088088;54;19934;-80
2022/07/10 03:30:41;;;;;;;;;;;;;;;17.43;66.90;100526.94;1091155;47;19949;-79
2022/07/10 03:31:42;;;;;;;;;;;;;;;17.35;67.14;100526.97;1088420;54;19950;-81
2022/07/10 03:32:46;;;;;;;;;;;;;;;17.41;66.95;100528.97;1088467;54;19939;-84
2022/07/10 03:33:47;;;;;;;;;;;;;;;17.37;67.25;100544.69;1089853;46;19943;-83
2022/07/10 03:34:51;;;;;;;;;;;;;;;17.34;67.32;100536.09;1088051;54;19950;-81
2022/07/10 03:35:55;;;;;;;;;;;;;;;17.33;67.14;100529.88;1088055;54;19942;-81
2022/07/10 03:36:59;;;;;;;;;;;;;;;17.21;67.93;100542.91;1088534;54;19943;-81
2022/07/10 03:38:00;;;;;;;;;;;;;;;17.11;67.74;100535.03;1088458;54;19949;-82
2022/07/10 03:39:04;;;;;;;;;;;;;;;17.03;68.53;100539.63;1090227;46;19943;-80
2022/07/10 03:40:05;;;;;;;;;;;;;;;16.96;68.51;100534.94;1088386;54;19946;-82
2022/07/10 03:41:09;;;;;;;;;;;;;;;16.99;68.63;100541.81;1088423;54;20070;-83
2022/07/10 03:42:10;;;;;;;;;;;;;;;16.95;68.75;100535.94;1088490;54;19974;-82
2022/07/10 03:43:17;;;;;;;;;;;;;;;16.92;68.95;100533.53;1090413;46;19943;-82
2022/07/10 03:44:18;;;;;;;;;;;;;;;17.00;68.50;100536.25;1092905;39;20630;-82
2022/07/10 03:45:21;;;;;;;;;;;;;;;17.09;68.24;100533.53;1088460;54;20027;-82
2022/07/10 03:46:22;;;;;;;;;;;;;;;17.06;68.24;100536.56;1088491;54;19927;-83
2022/07/10 03:47:26;;;;;;;;;;;;;;;16.88;68.64;100532.22;1088441;54;20022;-82
2022/07/10 03:48:27;;;;;;;;;;;;;;;16.73;69.32;100529.41;1088480;54;19942;-83
2022/07/10 03:49:31;;;;;;;;;;;;;;;16.87;68.91;100530.53;1088410;54;19946;-84
2022/07/10 03:50:32;;;;;;;;;;;;;;;16.75;69.14;100530.09;1088124;54;19942;-83
2022/07/10 03:51:36;;;;;;;;;;;;;;;16.78;69.23;100537.81;1088743;46;19954;-84
2022/07/10 03:52:37;;;;;;;;;;;;;;;16.87;68.65;100529.69;1088071;54;19942;-83
2022/07/10 03:53:41;;;;;;;;;;;;;;;16.68;69.66;100529.94;1088031;54;19943;-82
2022/07/10 03:54:42;;;;;;;;;;;;;;;16.57;70.08;100529.47;1088036;54;19941;-82
2022/07/10 03:55:46;;;;;;;;;;;;;;;16.53;70.05;100534.38;1088074;54;19942;-81
2022/07/10 03:58:03;;;;;;;;;;;;;;;16.64;69.82;100535.84;1088105;54;19990;-83
2022/07/10 03:59:06;;;;;;;;;;;;;;;16.76;69.16;100533.59;1088025;54;19942;-81
2022/07/10 04:00:11;;;;;;;;;;;;;;;16.84;68.63;100530.88;1088002;54;19943;-81
2022/07/10 04:01:12;;;;;;;;;;;;;;;16.93;68.31;100543.38;1088032;54;19942;-83
2022/07/10 04:02:16;;;;;;;;;;;;;;;16.99;68.26;100537.28;1088056;47;20340;-81
2022/07/10 04:03:17;;;;;;;;;;;;;;;17.04;67.85;100535.91;1087989;54;19945;-81
2022/07/10 04:04:21;;;;;;;;;;;;;;;17.07;67.58;100535.56;1089298;46;19955;-83
2022/07/10 04:05:22;;;;;;;;;;;;;;;17.09;67.50;100534.34;1088072;54;19942;-81
2022/07/10 04:06:26;;;;;;;;;;;;;;;17.15;67.51;100539.06;1088054;54;19954;-82
2022/07/10 04:07:27;;;;;;;;;;;;;;;17.20;67.07;100545.78;1088041;54;19947;-81
2022/07/10 04:08:30;;;;;;;;;;;;;;;17.23;67.25;100542.75;1088096;54;19949;-84
2022/07/10 04:09:32;;;;;;;;;;;;;;;17.22;67.04;100539.19;1087896;54;19957;-82
2022/07/10 04:10:35;;;;;;;;;;;;;;;17.22;66.91;100543.78;1088614;46;19949;-84
2022/07/10 04:11:37;;;;;;;;;;;;;;;17.27;67.05;100539.53;1087902;54;19943;-83
2022/07/10 04:12:41;;;;;;;;;;;;;;;17.29;66.90;100550.97;1088255;46;19943;-81
2022/07/10 04:13:42;;;;;;;;;;;;;;;17.29;66.95;100545.56;1088000;54;19943;-82
2022/07/10 04:14:51;;;;;;;;;;;;;;;17.17;67.31;100547.00;1088403;46;20426;-83
2022/07/10 04:15:52;;;;;;;;;;;;;;;17.21;67.16;100542.09;1092376;31;20688;-83
2022/07/10 04:16:56;;;;;;;;;;;;;;;17.19;67.05;100546.81;1088031;54;19938;-81
2022/07/10 04:17:59;;;;;;;;;;;;;;;17.25;66.75;100555.06;1088187;46;19943;-83
2022/07/10 04:19:01;;;;;;;;;;;;;;;17.26;66.71;100551.34;1087963;54;20002;-83
2022/07/10 04:20:05;;;;;;;;;;;;;;;17.30;66.54;100546.44;1087937;54;19943;-80
2022/07/10 04:21:06;;;;;;;;;;;;;;;17.28;66.63;100549.31;1087940;54;19942;-83
2022/07/10 04:22:10;;;;;;;;;;;;;;;17.32;66.80;100544.41;1088076;54;19942;-82
2022/07/10 04:23:11;;;;;;;;;;;;;;;17.31;66.75;100543.53;1088051;47;19950;-83
2022/07/10 04:24:14;;;;;;;;;;;;;;;17.31;66.93;100548.13;1088006;54;19954;-83
2022/07/10 04:25:16;;;;;;;;;;;;;;;17.31;66.50;100551.63;1087965;54;19946;-82
2022/07/10 04:26:19;;;;;;;;;;;;;;;17.34;66.74;100549.63;1088056;54;19942;-83
2022/07/10 04:27:21;;;;;;;;;;;;;;;17.38;66.23;100556.34;1089830;46;20008;-81
2022/07/10 04:28:24;;;;;;;;;;;;;;;17.36;66.40;100545.72;1088880;46;19934;-81
2022/07/10 04:29:25;;;;;;;;;;;;;;;17.26;66.97;100551.34;1089727;46;20018;-81
2022/07/10 04:30:32;;;;;;;;;;;;;;;17.18;67.46;100550.53;1091856;39;20082;-81
2022/07/10 04:31:33;;;;;;;;;;;;;;;17.14;67.10;100550.03;1088349;54;19942;-83
2022/07/10 04:32:37;;;;;;;;;;;;;;;17.11;67.56;100547.69;1088467;47;19962;-81
2022/07/10 04:33:38;;;;;;;;;;;;;;;17.04;67.65;100557.50;1089590;46;19942;-82
2022/07/10 04:34:42;;;;;;;;;;;;;;;16.97;67.71;100550.13;1094950;39;20530;-84
2022/07/10 04:35:43;;;;;;;;;;;;;;;16.92;67.91;100552.44;1088359;54;19942;-83
2022/07/10 04:36:47;;;;;;;;;;;;;;;16.90;68.21;100553.66;1088539;46;19927;-83
2022/07/10 04:37:48;;;;;;;;;;;;;;;16.88;68.05;100540.34;1088429;54;19950;-84
2022/07/10 04:38:52;;;;;;;;;;;;;;;16.85;68.25;100546.06;1088406;54;19942;-84
2022/07/10 04:39:53;;;;;;;;;;;;;;;16.87;68.20;100545.88;1088347;54;19943;-85
2022/07/10 04:40:56;;;;;;;;;;;;;;;16.89;67.81;100550.13;1088373;54;19998;-83
2022/07/10 04:41:58;;;;;;;;;;;;;;;16.87;67.87;100538.63;1088252;54;19942;-82
2022/07/10 04:43:01;;;;;;;;;;;;;;;16.94;67.59;100546.94;1088012;54;19942;-84
2022/07/10 04:44:03;;;;;;;;;;;;;;;16.89;67.60;100547.41;1087977;54;19943;-83
2022/07/10 04:45:07;;;;;;;;;;;;;;;16.86;67.83;100544.22;1088171;54;20011;-82
2022/07/10 04:46:11;;;;;;;;;;;;;;;16.89;67.57;100539.31;1088372;54;19966;-81
2022/07/10 04:47:15;;;;;;;;;;;;;;;16.81;68.30;100542.03;1088339;54;19942;-82
2022/07/10 04:48:16;;;;;;;;;;;;;;;16.83;68.37;100545.38;1088397;54;19931;-82
2022/07/10 04:49:20;;;;;;;;;;;;;;;16.90;67.93;100540.16;1088347;54;19942;-83
2022/07/10 04:50:21;;;;;;;;;;;;;;;16.95;67.62;100541.34;1088332;54;19942;-81
2022/07/10 04:51:25;;;;;;;;;;;;;;;16.96;67.66;100544.88;1088330;54;19949;-83
2022/07/10 04:52:26;;;;;;;;;;;;;;;16.98;67.68;100549.09;1088343;54;19942;-82
2022/07/10 04:53:30;;;;;;;;;;;;;;;16.96;67.79;100551.13;1091367;46;19950;-82
2022/07/10 04:54:32;;;;;;;;;;;;;;;16.89;67.87;100544.72;1088369;54;19949;-84
2022/07/10 04:55:35;;;;;;;;;;;;;;;16.95;67.47;100544.03;1088367;54;19981;-82
2022/07/10 04:56:36;;;;;;;;;;;;;;;16.97;67.40;100543.84;1088926;46;19939;-85
2022/07/10 04:57:44;;;;;;;;;;;;;;;16.91;67.91;100548.06;1088342;54;19950;-85
2022/07/10 04:58:45;;;;;;;;;;;;;;;16.97;67.32;100546.56;1088376;54;19927;-84
2022/07/10 04:59:49;;;;;;;;;;;;;;;17.00;67.27;100546.22;1092669;39;20479;-84
2022/07/10 05:00:50;;;;;;;;;;;;;;;16.92;67.72;100541.66;1088150;46;19965;-81
2022/07/10 05:01:57;;;;;;;;;;;;;;;16.87;67.73;100540.47;1087899;54;19986;-81
2022/07/10 05:02:58;;;;;;;;;;;;;;;16.86;67.86;100538.81;1088332;54;19942;-86
2022/07/10 05:04:02;;;;;;;;;;;;;;;16.82;67.96;100543.72;1088350;54;19942;-82
2022/07/10 05:05:04;;;;;;;;;;;;;;;16.84;68.33;100539.84;1088336;54;19943;-83
2022/07/10 05:06:08;;;;;;;;;;;;;;;16.83;68.18;100540.00;1088353;54;20190;-83
2022/07/10 05:07:09;;;;;;;;;;;;;;;16.79;68.37;100544.06;1089048;46;19950;-83
2022/07/10 05:08:13;;;;;;;;;;;;;;;16.81;68.10;100542.03;1089135;46;19990;-82
2022/07/10 05:09:14;;;;;;;;;;;;;;;16.84;68.27;100542.53;1088362;54;19942;-84
2022/07/10 05:10:18;;;;;;;;;;;;;;;16.88;67.83;100544.88;1088350;54;19949;-83
2022/07/10 05:11:19;;;;;;;;;;;;;;;16.89;67.46;100539.31;1088219;54;19938;-84
2022/07/10 05:12:23;;;;;;;;;;;;;;;16.89;67.20;100547.41;1088386;54;19938;-85
2022/07/10 05:13:24;;;;;;;;;;;;;;;16.87;67.41;100541.34;1088428;54;19942;-85
2022/07/10 05:14:28;;;;;;;;;;;;;;;16.90;67.07;100542.84;1088415;54;19942;-84
2022/07/10 05:15:29;;;;;;;;;;;;;;;16.85;66.99;100551.47;1088357;54;19950;-84
2022/07/10 05:16:33;;;;;;;;;;;;;;;16.82;67.32;100546.41;1088363;54;19949;-83
2022/07/10 05:17:37;;;;;;;;;;;;;;;16.81;67.39;100555.53;1088175;54;21016;-82
2022/07/10 05:18:41;;;;;;;;;;;;;;;16.77;67.48;100554.19;1091098;39;20563;-83
2022/07/10 05:20:49;;;;;;;;;;;;;;;16.79;67.45;100554.88;1088332;54;19966;-83
2022/07/10 05:21:50;;;;;;;;;;;;;;;16.78;67.74;100559.41;1088427;54;20073;-85
2022/07/10 05:26:36;;;;;;;;;;;;;;;16.74;67.56;100565.34;1089443;46;19927;-84
2022/07/10 05:28:44;;;;;;;;;;;;;;;16.71;68.25;100563.00;1088924;54;19930;-83
2022/07/10 05:31:54;;;;;;;;;;;;;;;16.85;67.78;100564.97;1088785;54;19944;-85
2022/07/10 05:32:58;;;;;;;;;;;;;;;16.91;67.25;100566.97;1088553;54;19938;-85
2022/07/10 05:35:20;;;;;;;;;;;;;;;16.99;66.68;100569.69;1088414;54;20024;-83